sensor_id;sensor_type;location;lat;lon;timestamp;P1;durP1;ratioP1;P2;durP2;ratioP2
29452;SDS011;16424;50.956;5.320;2023-03-23T00:01:14;7.53;;;2.40;;
29452;SDS011;16424;50.956;5.320;2023-03-23T00:03:48;3.08;;;1.92;;
29452;SDS011;16424;50.956;5.320;2023-03-23T00:06:16;5.72;;;2.30;;
29452;SDS011;16424;50.956;5.320;2023-03-23T00:08:43;4.10;;;2.17;;
29452;SDS011;16424;50.956;5.320;2023-03-23T00:11:10;3.15;;;1.98;;
29452;SDS011;16424;50.956;5.320;2023-03-23T00:13:39;3.53;;;2.10;;
29452;SDS011;16424;50.956;5.320;2023-03-23T00:16:07;6.97;;;2.20;;
29452;SDS011;16424;50.956;5.320;2023-03-23T00:21:12;4.78;;;2.45;;
29452;SDS011;16424;50.956;5.320;2023-03-23T00:23:38;3.85;;;2.22;;
29452;SDS011;16424;50.956;5.320;2023-03-23T00:26:04;3.28;;;2.35;;
29452;SDS011;16424;50.956;5.320;2023-03-23T00:28:30;4.78;;;2.25;;
29452;SDS011;16424;50.956;5.320;2023-03-23T00:33:23;3.22;;;1.88;;
29452;SDS011;16424;50.956;5.320;2023-03-23T00:35:51;3.72;;;2.38;;
29452;SDS011;16424;50.956;5.320;2023-03-23T00:38:18;3.55;;;2.17;;
29452;SDS011;16424;50.956;5.320;2023-03-23T00:40:44;6.68;;;2.53;;
29452;SDS011;16424;50.956;5.320;2023-03-23T00:43:12;4.25;;;2.17;;
29452;SDS011;16424;50.956;5.320;2023-03-23T00:45:41;4.75;;;2.58;;
29452;SDS011;16424;50.956;5.320;2023-03-23T00:48:10;4.55;;;2.50;;
29452;SDS011;16424;50.956;5.320;2023-03-23T00:50:37;5.18;;;2.33;;
29452;SDS011;16424;50.956;5.320;2023-03-23T00:53:04;3.85;;;2.25;;
29452;SDS011;16424;50.956;5.320;2023-03-23T00:55:29;3.30;;;2.03;;
29452;SDS011;16424;50.956;5.320;2023-03-23T00:57:55;6.13;;;2.33;;
29452;SDS011;16424;50.956;5.320;2023-03-23T01:00:22;4.75;;;2.30;;
29452;SDS011;16424;50.956;5.320;2023-03-23T01:02:48;5.45;;;2.92;;
29452;SDS011;16424;50.956;5.320;2023-03-23T01:05:17;4.07;;;2.42;;
29452;SDS011;16424;50.956;5.320;2023-03-23T01:07:42;5.03;;;2.60;;
29452;SDS011;16424;50.956;5.320;2023-03-23T01:10:09;4.88;;;2.30;;
29452;SDS011;16424;50.956;5.320;2023-03-23T01:12:41;4.68;;;2.63;;
29452;SDS011;16424;50.956;5.320;2023-03-23T01:15:08;3.60;;;2.13;;
29452;SDS011;16424;50.956;5.320;2023-03-23T01:17:38;5.32;;;2.30;;
29452;SDS011;16424;50.956;5.320;2023-03-23T01:20:04;5.65;;;2.60;;
29452;SDS011;16424;50.956;5.320;2023-03-23T01:22:31;5.38;;;2.38;;
29452;SDS011;16424;50.956;5.320;2023-03-23T01:24:57;3.72;;;2.83;;
29452;SDS011;16424;50.956;5.320;2023-03-23T01:27:23;6.13;;;2.88;;
29452;SDS011;16424;50.956;5.320;2023-03-23T01:29:49;6.43;;;2.97;;
29452;SDS011;16424;50.956;5.320;2023-03-23T01:32:15;4.25;;;2.35;;
29452;SDS011;16424;50.956;5.320;2023-03-23T01:34:41;3.47;;;2.70;;
29452;SDS011;16424;50.956;5.320;2023-03-23T01:37:06;7.38;;;3.05;;
29452;SDS011;16424;50.956;5.320;2023-03-23T01:39:32;5.22;;;2.88;;
29452;SDS011;16424;50.956;5.320;2023-03-23T01:41:58;2.92;;;2.53;;
29452;SDS011;16424;50.956;5.320;2023-03-23T01:46:49;4.13;;;2.65;;
29452;SDS011;16424;50.956;5.320;2023-03-23T01:49:15;5.13;;;2.67;;
29452;SDS011;16424;50.956;5.320;2023-03-23T01:51:48;3.55;;;2.47;;
29452;SDS011;16424;50.956;5.320;2023-03-23T01:54:17;5.13;;;2.72;;
29452;SDS011;16424;50.956;5.320;2023-03-23T01:56:53;5.55;;;3.40;;
29452;SDS011;16424;50.956;5.320;2023-03-23T01:59:24;4.45;;;2.67;;
29452;SDS011;16424;50.956;5.320;2023-03-23T02:01:53;3.05;;;2.55;;
29452;SDS011;16424;50.956;5.320;2023-03-23T02:04:20;4.30;;;2.90;;
29452;SDS011;16424;50.956;5.320;2023-03-23T02:06:49;5.88;;;2.63;;
29452;SDS011;16424;50.956;5.320;2023-03-23T02:09:17;4.78;;;2.90;;
29452;SDS011;16424;50.956;5.320;2023-03-23T02:11:44;4.13;;;2.97;;
29452;SDS011;16424;50.956;5.320;2023-03-23T02:14:11;4.78;;;2.72;;
29452;SDS011;16424;50.956;5.320;2023-03-23T02:28:37;3.25;;;2.65;;
29452;SDS011;16424;50.956;5.320;2023-03-23T02:33:38;8.43;;;2.97;;
29452;SDS011;16424;50.956;5.320;2023-03-23T02:39:17;4.43;;;2.88;;
29452;SDS011;16424;50.956;5.320;2023-03-23T02:42:05;4.07;;;2.85;;
29452;SDS011;16424;50.956;5.320;2023-03-23T02:44:36;3.85;;;2.67;;
29452;SDS011;16424;50.956;5.320;2023-03-23T02:47:06;5.25;;;3.03;;
29452;SDS011;16424;50.956;5.320;2023-03-23T02:49:36;2.63;;;2.42;;
29452;SDS011;16424;50.956;5.320;2023-03-23T02:52:07;5.93;;;2.70;;
29452;SDS011;16424;50.956;5.320;2023-03-23T02:54:37;3.40;;;2.85;;
29452;SDS011;16424;50.956;5.320;2023-03-23T02:57:03;4.53;;;2.47;;
29452;SDS011;16424;50.956;5.320;2023-03-23T02:59:30;3.30;;;2.65;;
29452;SDS011;16424;50.956;5.320;2023-03-23T03:04:25;3.42;;;2.25;;
29452;SDS011;16424;50.956;5.320;2023-03-23T03:12:21;5.10;;;3.05;;
29452;SDS011;16424;50.956;5.320;2023-03-23T03:15:05;3.28;;;2.22;;
29452;SDS011;16424;50.956;5.320;2023-03-23T03:17:36;4.43;;;2.40;;
29452;SDS011;16424;50.956;5.320;2023-03-23T03:20:10;5.20;;;2.40;;
29452;SDS011;16424;50.956;5.320;2023-03-23T03:22:39;3.42;;;2.72;;
29452;SDS011;16424;50.956;5.320;2023-03-23T03:25:08;4.68;;;2.50;;
29452;SDS011;16424;50.956;5.320;2023-03-23T03:27:37;3.55;;;2.58;;
29452;SDS011;16424;50.956;5.320;2023-03-23T03:30:06;3.65;;;1.92;;
29452;SDS011;16424;50.956;5.320;2023-03-23T03:32:38;4.75;;;2.30;;
29452;SDS011;16424;50.956;5.320;2023-03-23T03:35:11;3.55;;;2.35;;
29452;SDS011;16424;50.956;5.320;2023-03-23T03:37:37;5.25;;;2.60;;
29452;SDS011;16424;50.956;5.320;2023-03-23T03:40:09;4.85;;;2.50;;
29452;SDS011;16424;50.956;5.320;2023-03-23T03:42:41;4.53;;;2.13;;
29452;SDS011;16424;50.956;5.320;2023-03-23T03:45:08;4.68;;;2.33;;
29452;SDS011;16424;50.956;5.320;2023-03-23T03:47:35;5.40;;;2.30;;
29452;SDS011;16424;50.956;5.320;2023-03-23T03:50:01;3.65;;;2.38;;
29452;SDS011;16424;50.956;5.320;2023-03-23T03:52:27;4.13;;;1.98;;
29452;SDS011;16424;50.956;5.320;2023-03-23T03:54:53;5.00;;;1.90;;
29452;SDS011;16424;50.956;5.320;2023-03-23T03:57:20;2.20;;;1.63;;
29452;SDS011;16424;50.956;5.320;2023-03-23T03:59:46;6.97;;;1.88;;
29452;SDS011;16424;50.956;5.320;2023-03-23T04:02:12;5.30;;;2.10;;
29452;SDS011;16424;50.956;5.320;2023-03-23T04:04:44;5.97;;;2.28;;
29452;SDS011;16424;50.956;5.320;2023-03-23T04:07:13;2.22;;;1.60;;
29452;SDS011;16424;50.956;5.320;2023-03-23T04:09:41;2.65;;;1.80;;
29452;SDS011;16424;50.956;5.320;2023-03-23T04:12:08;3.58;;;1.63;;
29452;SDS011;16424;50.956;5.320;2023-03-23T04:14:34;3.72;;;2.08;;
29452;SDS011;16424;50.956;5.320;2023-03-23T04:17:00;2.95;;;2.00;;
29452;SDS011;16424;50.956;5.320;2023-03-23T04:19:26;5.18;;;1.95;;
29452;SDS011;16424;50.956;5.320;2023-03-23T04:21:53;7.03;;;1.77;;
29452;SDS011;16424;50.956;5.320;2023-03-23T04:24:20;7.40;;;2.17;;
29452;SDS011;16424;50.956;5.320;2023-03-23T04:26:47;4.72;;;1.90;;
29452;SDS011;16424;50.956;5.320;2023-03-23T04:29:13;2.95;;;1.63;;
29452;SDS011;16424;50.956;5.320;2023-03-23T04:31:40;5.40;;;2.28;;
29452;SDS011;16424;50.956;5.320;2023-03-23T04:34:10;6.18;;;1.98;;
29452;SDS011;16424;50.956;5.320;2023-03-23T04:36:38;6.03;;;2.42;;
29452;SDS011;16424;50.956;5.320;2023-03-23T04:39:05;3.80;;;1.65;;
29452;SDS011;16424;50.956;5.320;2023-03-23T04:41:34;4.97;;;2.10;;
29452;SDS011;16424;50.956;5.320;2023-03-23T04:44:03;4.38;;;1.65;;
29452;SDS011;16424;50.956;5.320;2023-03-23T04:46:30;6.97;;;2.00;;
29452;SDS011;16424;50.956;5.320;2023-03-23T04:48:58;3.20;;;1.67;;
29452;SDS011;16424;50.956;5.320;2023-03-23T04:51:25;3.95;;;2.05;;
29452;SDS011;16424;50.956;5.320;2023-03-23T04:53:52;5.75;;;2.15;;
29452;SDS011;16424;50.956;5.320;2023-03-23T04:56:17;5.10;;;1.65;;
29452;SDS011;16424;50.956;5.320;2023-03-23T04:58:44;5.13;;;1.73;;
29452;SDS011;16424;50.956;5.320;2023-03-23T05:01:10;6.90;;;2.05;;
29452;SDS011;16424;50.956;5.320;2023-03-23T05:03:40;11.50;;;2.20;;
29452;SDS011;16424;50.956;5.320;2023-03-23T05:06:06;9.07;;;1.60;;
29452;SDS011;16424;50.956;5.320;2023-03-23T05:08:32;7.03;;;1.60;;
29452;SDS011;16424;50.956;5.320;2023-03-23T05:10:59;8.25;;;2.17;;
29452;SDS011;16424;50.956;5.320;2023-03-23T05:13:26;7.25;;;2.00;;
29452;SDS011;16424;50.956;5.320;2023-03-23T05:15:53;7.05;;;2.10;;
29452;SDS011;16424;50.956;5.320;2023-03-23T05:18:19;6.28;;;1.73;;
29452;SDS011;16424;50.956;5.320;2023-03-23T05:20:45;6.47;;;1.83;;
29452;SDS011;16424;50.956;5.320;2023-03-23T05:23:12;3.00;;;1.27;;
29452;SDS011;16424;50.956;5.320;2023-03-23T05:25:37;4.70;;;1.75;;
29452;SDS011;16424;50.956;5.320;2023-03-23T05:28:12;5.05;;;1.42;;
29452;SDS011;16424;50.956;5.320;2023-03-23T05:30:38;5.25;;;1.52;;
29452;SDS011;16424;50.956;5.320;2023-03-23T05:33:05;3.22;;;1.48;;
29452;SDS011;16424;50.956;5.320;2023-03-23T05:35:31;4.97;;;1.48;;
29452;SDS011;16424;50.956;5.320;2023-03-23T05:37:57;6.60;;;1.75;;
29452;SDS011;16424;50.956;5.320;2023-03-23T05:40:23;5.82;;;1.60;;
29452;SDS011;16424;50.956;5.320;2023-03-23T05:42:50;5.03;;;1.70;;
29452;SDS011;16424;50.956;5.320;2023-03-23T05:45:16;5.30;;;1.83;;
29452;SDS011;16424;50.956;5.320;2023-03-23T05:47:43;4.07;;;1.48;;
29452;SDS011;16424;50.956;5.320;2023-03-23T05:50:09;7.50;;;1.45;;
29452;SDS011;16424;50.956;5.320;2023-03-23T05:52:36;6.47;;;1.77;;
29452;SDS011;16424;50.956;5.320;2023-03-23T05:55:02;7.57;;;1.77;;
29452;SDS011;16424;50.956;5.320;2023-03-23T05:57:29;5.55;;;2.20;;
29452;SDS011;16424;50.956;5.320;2023-03-23T05:59:55;4.65;;;1.60;;
29452;SDS011;16424;50.956;5.320;2023-03-23T06:02:22;3.30;;;1.55;;
29452;SDS011;16424;50.956;5.320;2023-03-23T06:04:49;8.52;;;1.40;;
29452;SDS011;16424;50.956;5.320;2023-03-23T06:07:15;4.03;;;1.65;;
29452;SDS011;16424;50.956;5.320;2023-03-23T06:09:41;6.30;;;1.50;;
29452;SDS011;16424;50.956;5.320;2023-03-23T06:12:07;4.50;;;2.45;;
29452;SDS011;16424;50.956;5.320;2023-03-23T06:14:34;5.03;;;1.52;;
29452;SDS011;16424;50.956;5.320;2023-03-23T06:17:01;4.88;;;1.73;;
29452;SDS011;16424;50.956;5.320;2023-03-23T06:19:27;4.10;;;1.40;;
29452;SDS011;16424;50.956;5.320;2023-03-23T06:21:56;5.57;;;1.55;;
29452;SDS011;16424;50.956;5.320;2023-03-23T06:24:22;4.75;;;1.75;;
29452;SDS011;16424;50.956;5.320;2023-03-23T06:26:47;3.28;;;1.30;;
29452;SDS011;16424;50.956;5.320;2023-03-23T06:29:14;7.88;;;2.13;;
29452;SDS011;16424;50.956;5.320;2023-03-23T06:31:44;7.40;;;1.60;;
29452;SDS011;16424;50.956;5.320;2023-03-23T06:34:16;3.35;;;1.65;;
29452;SDS011;16424;50.956;5.320;2023-03-23T06:36:41;6.15;;;1.75;;
29452;SDS011;16424;50.956;5.320;2023-03-23T06:39:09;7.53;;;2.05;;
29452;SDS011;16424;50.956;5.320;2023-03-23T06:41:35;6.47;;;1.63;;
29452;SDS011;16424;50.956;5.320;2023-03-23T06:44:01;4.55;;;1.63;;
29452;SDS011;16424;50.956;5.320;2023-03-23T06:46:27;5.32;;;1.95;;
29452;SDS011;16424;50.956;5.320;2023-03-23T06:48:53;4.10;;;1.50;;
29452;SDS011;16424;50.956;5.320;2023-03-23T06:51:19;5.78;;;1.90;;
29452;SDS011;16424;50.956;5.320;2023-03-23T06:53:45;10.73;;;1.73;;
29452;SDS011;16424;50.956;5.320;2023-03-23T06:56:12;5.40;;;1.58;;
29452;SDS011;16424;50.956;5.320;2023-03-23T06:58:38;3.95;;;1.30;;
29452;SDS011;16424;50.956;5.320;2023-03-23T07:01:04;6.47;;;2.10;;
29452;SDS011;16424;50.956;5.320;2023-03-23T07:03:30;5.05;;;1.45;;
29452;SDS011;16424;50.956;5.320;2023-03-23T07:05:56;6.30;;;1.75;;
29452;SDS011;16424;50.956;5.320;2023-03-23T07:08:24;5.78;;;1.42;;
29452;SDS011;16424;50.956;5.320;2023-03-23T07:10:53;5.32;;;1.60;;
29452;SDS011;16424;50.956;5.320;2023-03-23T07:13:20;6.63;;;1.33;;
29452;SDS011;16424;50.956;5.320;2023-03-23T07:15:46;3.38;;;1.42;;
29452;SDS011;16424;50.956;5.320;2023-03-23T07:18:14;10.95;;;1.90;;
29452;SDS011;16424;50.956;5.320;2023-03-23T07:20:40;6.93;;;1.90;;
29452;SDS011;16424;50.956;5.320;2023-03-23T07:23:06;8.70;;;1.67;;
29452;SDS011;16424;50.956;5.320;2023-03-23T07:25:32;3.10;;;1.35;;
29452;SDS011;16424;50.956;5.320;2023-03-23T07:27:59;6.43;;;1.65;;
29452;SDS011;16424;50.956;5.320;2023-03-23T07:30:26;6.50;;;2.05;;
29452;SDS011;16424;50.956;5.320;2023-03-23T07:32:54;5.75;;;1.80;;
29452;SDS011;16424;50.956;5.320;2023-03-23T07:35:20;7.32;;;2.28;;
29452;SDS011;16424;50.956;5.320;2023-03-23T07:37:47;6.32;;;1.70;;
29452;SDS011;16424;50.956;5.320;2023-03-23T07:40:14;10.27;;;1.83;;
29452;SDS011;16424;50.956;5.320;2023-03-23T07:42:44;7.57;;;1.83;;
29452;SDS011;16424;50.956;5.320;2023-03-23T07:45:11;6.63;;;1.50;;
29452;SDS011;16424;50.956;5.320;2023-03-23T07:47:38;5.70;;;1.27;;
29452;SDS011;16424;50.956;5.320;2023-03-23T07:50:05;9.75;;;1.73;;
29452;SDS011;16424;50.956;5.320;2023-03-23T07:52:32;4.85;;;1.55;;
29452;SDS011;16424;50.956;5.320;2023-03-23T07:54:58;7.28;;;2.33;;
29452;SDS011;16424;50.956;5.320;2023-03-23T07:57:26;6.22;;;2.00;;
29452;SDS011;16424;50.956;5.320;2023-03-23T07:59:52;5.38;;;1.45;;
29452;SDS011;16424;50.956;5.320;2023-03-23T08:02:18;6.30;;;1.60;;
29452;SDS011;16424;50.956;5.320;2023-03-23T08:04:44;4.72;;;1.23;;
29452;SDS011;16424;50.956;5.320;2023-03-23T08:07:10;3.63;;;1.30;;
29452;SDS011;16424;50.956;5.320;2023-03-23T08:09:37;4.93;;;1.65;;
29452;SDS011;16424;50.956;5.320;2023-03-23T08:12:04;7.60;;;1.88;;
29452;SDS011;16424;50.956;5.320;2023-03-23T08:14:30;5.60;;;1.90;;
29452;SDS011;16424;50.956;5.320;2023-03-23T08:16:55;6.18;;;2.13;;
29452;SDS011;16424;50.956;5.320;2023-03-23T08:19:22;6.80;;;1.85;;
29452;SDS011;16424;50.956;5.320;2023-03-23T08:21:48;6.78;;;1.42;;
29452;SDS011;16424;50.956;5.320;2023-03-23T08:24:14;6.07;;;1.65;;
29452;SDS011;16424;50.956;5.320;2023-03-23T08:26:40;3.25;;;0.73;;
29452;SDS011;16424;50.956;5.320;2023-03-23T08:29:07;1.65;;;0.52;;
29452;SDS011;16424;50.956;5.320;2023-03-23T08:31:33;2.78;;;0.68;;
29452;SDS011;16424;50.956;5.320;2023-03-23T08:34:00;1.58;;;0.65;;
29452;SDS011;16424;50.956;5.320;2023-03-23T08:36:27;1.15;;;0.68;;
29452;SDS011;16424;50.956;5.320;2023-03-23T08:38:53;0.93;;;0.70;;
29452;SDS011;16424;50.956;5.320;2023-03-23T08:41:19;1.70;;;0.70;;
29452;SDS011;16424;50.956;5.320;2023-03-23T08:43:45;3.92;;;1.00;;
29452;SDS011;16424;50.956;5.320;2023-03-23T08:46:11;2.40;;;0.82;;
29452;SDS011;16424;50.956;5.320;2023-03-23T08:48:37;1.85;;;0.63;;
29452;SDS011;16424;50.956;5.320;2023-03-23T08:51:04;2.35;;;0.77;;
29452;SDS011;16424;50.956;5.320;2023-03-23T08:53:31;1.33;;;0.77;;
29452;SDS011;16424;50.956;5.320;2023-03-23T08:56:07;2.17;;;0.80;;
29452;SDS011;16424;50.956;5.320;2023-03-23T08:58:35;4.22;;;1.27;;
29452;SDS011;16424;50.956;5.320;2023-03-23T09:01:02;2.97;;;1.02;;
29452;SDS011;16424;50.956;5.320;2023-03-23T09:03:31;2.78;;;0.90;;
29452;SDS011;16424;50.956;5.320;2023-03-23T09:05:58;3.38;;;1.00;;
29452;SDS011;16424;50.956;5.320;2023-03-23T09:08:25;3.30;;;1.00;;
29452;SDS011;16424;50.956;5.320;2023-03-23T09:10:54;6.35;;;1.13;;
29452;SDS011;16424;50.956;5.320;2023-03-23T09:13:20;3.90;;;1.00;;
29452;SDS011;16424;50.956;5.320;2023-03-23T09:15:46;3.35;;;1.02;;
29452;SDS011;16424;50.956;5.320;2023-03-23T09:18:13;5.45;;;0.80;;
29452;SDS011;16424;50.956;5.320;2023-03-23T09:20:39;1.35;;;1.00;;
29452;SDS011;16424;50.956;5.320;2023-03-23T09:23:05;3.50;;;1.40;;
29452;SDS011;16424;50.956;5.320;2023-03-23T09:25:30;4.43;;;1.25;;
29452;SDS011;16424;50.956;5.320;2023-03-23T09:27:57;3.13;;;1.80;;
29452;SDS011;16424;50.956;5.320;2023-03-23T09:30:24;1.52;;;1.17;;
29452;SDS011;16424;50.956;5.320;2023-03-23T09:32:52;2.45;;;1.35;;
29452;SDS011;16424;50.956;5.320;2023-03-23T09:35:19;7.13;;;2.00;;
29452;SDS011;16424;50.956;5.320;2023-03-23T09:37:46;3.03;;;1.15;;
29452;SDS011;16424;50.956;5.320;2023-03-23T09:40:15;2.78;;;1.30;;
29452;SDS011;16424;50.956;5.320;2023-03-23T09:48:17;10.05;;;4.30;;
29452;SDS011;16424;50.956;5.320;2023-03-23T09:53:54;6.00;;;3.35;;
29452;SDS011;16424;50.956;5.320;2023-03-23T09:56:25;4.90;;;3.00;;
29452;SDS011;16424;50.956;5.320;2023-03-23T09:58:56;4.68;;;2.42;;
29452;SDS011;16424;50.956;5.320;2023-03-23T10:01:35;5.20;;;2.17;;
29452;SDS011;16424;50.956;5.320;2023-03-23T10:04:06;4.82;;;2.83;;
29452;SDS011;16424;50.956;5.320;2023-03-23T10:06:41;3.45;;;2.25;;
29452;SDS011;16424;50.956;5.320;2023-03-23T10:09:08;7.53;;;2.55;;
29452;SDS011;16424;50.956;5.320;2023-03-23T10:20:21;1.55;;;0.90;;
29452;SDS011;16424;50.956;5.320;2023-03-23T10:25:38;6.18;;;2.13;;
29452;SDS011;16424;50.956;5.320;2023-03-23T10:28:11;5.07;;;1.30;;
29452;SDS011;16424;50.956;5.320;2023-03-23T10:30:41;5.75;;;1.60;;
29452;SDS011;16424;50.956;5.320;2023-03-23T10:33:24;3.17;;;1.52;;
29452;SDS011;16424;50.956;5.320;2023-03-23T10:35:57;6.50;;;2.15;;
29452;SDS011;16424;50.956;5.320;2023-03-23T10:38:43;5.05;;;1.38;;
29452;SDS011;16424;50.956;5.320;2023-03-23T10:41:22;3.95;;;1.20;;
29452;SDS011;16424;50.956;5.320;2023-03-23T10:43:47;4.78;;;1.25;;
29452;SDS011;16424;50.956;5.320;2023-03-23T10:46:21;3.65;;;1.40;;
29452;SDS011;16424;50.956;5.320;2023-03-23T10:49:08;2.38;;;1.42;;
29452;SDS011;16424;50.956;5.320;2023-03-23T10:51:40;5.97;;;1.98;;
29452;SDS011;16424;50.956;5.320;2023-03-23T10:54:09;4.18;;;1.92;;
29452;SDS011;16424;50.956;5.320;2023-03-23T10:56:39;3.78;;;1.63;;
29452;SDS011;16424;50.956;5.320;2023-03-23T10:59:13;3.65;;;2.00;;
29452;SDS011;16424;50.956;5.320;2023-03-23T11:01:45;2.97;;;1.63;;
29452;SDS011;16424;50.956;5.320;2023-03-23T11:04:16;2.80;;;1.48;;
29452;SDS011;16424;50.956;5.320;2023-03-23T11:06:45;4.07;;;1.60;;
29452;SDS011;16424;50.956;5.320;2023-03-23T11:09:15;2.72;;;1.70;;
29452;SDS011;16424;50.956;5.320;2023-03-23T11:11:49;3.25;;;1.95;;
29452;SDS011;16424;50.956;5.320;2023-03-23T11:14:25;2.35;;;1.20;;
29452;SDS011;16424;50.956;5.320;2023-03-23T11:16:54;1.63;;;1.10;;
29452;SDS011;16424;50.956;5.320;2023-03-23T11:19:32;3.35;;;1.20;;
29452;SDS011;16424;50.956;5.320;2023-03-23T11:24:31;4.00;;;1.10;;
29452;SDS011;16424;50.956;5.320;2023-03-23T11:26:59;6.95;;;1.75;;
29452;SDS011;16424;50.956;5.320;2023-03-23T11:29:28;4.03;;;1.35;;
29452;SDS011;16424;50.956;5.320;2023-03-23T11:34:35;4.25;;;1.38;;
29452;SDS011;16424;50.956;5.320;2023-03-23T11:37:07;4.25;;;1.30;;
29452;SDS011;16424;50.956;5.320;2023-03-23T11:42:19;2.40;;;1.15;;
29452;SDS011;16424;50.956;5.320;2023-03-23T11:55:50;4.20;;;1.60;;
29452;SDS011;16424;50.956;5.320;2023-03-23T11:58:29;4.77;;;1.80;;
29452;SDS011;16424;50.956;5.320;2023-03-23T12:06:15;3.17;;;1.55;;
29452;SDS011;16424;50.956;5.320;2023-03-23T12:09:02;4.55;;;2.50;;
29452;SDS011;16424;50.956;5.320;2023-03-23T12:14:44;3.15;;;1.50;;
29452;SDS011;16424;50.956;5.320;2023-03-23T12:17:49;5.53;;;1.85;;
29452;SDS011;16424;50.956;5.320;2023-03-23T12:20:52;7.05;;;2.38;;
29452;SDS011;16424;50.956;5.320;2023-03-23T12:23:26;5.72;;;1.85;;
29452;SDS011;16424;50.956;5.320;2023-03-23T12:31:49;3.70;;;1.55;;
29452;SDS011;16424;50.956;5.320;2023-03-23T12:34:40;5.85;;;1.95;;
29452;SDS011;16424;50.956;5.320;2023-03-23T12:45:15;7.93;;;1.75;;
29452;SDS011;16424;50.956;5.320;2023-03-23T12:48:28;7.32;;;2.13;;
29452;SDS011;16424;50.956;5.320;2023-03-23T12:53:42;5.80;;;2.28;;
29452;SDS011;16424;50.956;5.320;2023-03-23T12:58:55;3.47;;;1.55;;
29452;SDS011;16424;50.956;5.320;2023-03-23T13:01:45;2.72;;;1.10;;
29452;SDS011;16424;50.956;5.320;2023-03-23T13:04:17;4.22;;;2.05;;
29452;SDS011;16424;50.956;5.320;2023-03-23T13:06:47;6.32;;;1.58;;
29452;SDS011;16424;50.956;5.320;2023-03-23T13:11:56;6.38;;;1.60;;
29452;SDS011;16424;50.956;5.320;2023-03-23T13:14:29;4.28;;;1.50;;
29452;SDS011;16424;50.956;5.320;2023-03-23T13:20:01;5.93;;;1.85;;
29452;SDS011;16424;50.956;5.320;2023-03-23T13:25:48;7.32;;;2.28;;
29452;SDS011;16424;50.956;5.320;2023-03-23T13:28:19;8.35;;;2.22;;
29452;SDS011;16424;50.956;5.320;2023-03-23T13:33:44;10.80;;;2.72;;
29452;SDS011;16424;50.956;5.320;2023-03-23T13:36:25;9.13;;;2.67;;
29452;SDS011;16424;50.956;5.320;2023-03-23T13:38:53;8.23;;;3.22;;
29452;SDS011;16424;50.956;5.320;2023-03-23T13:41:21;8.65;;;3.10;;
29452;SDS011;16424;50.956;5.320;2023-03-23T13:43:47;9.75;;;2.58;;
29452;SDS011;16424;50.956;5.320;2023-03-23T13:56:42;8.70;;;2.42;;
29452;SDS011;16424;50.956;5.320;2023-03-23T13:59:15;7.45;;;2.45;;
29452;SDS011;16424;50.956;5.320;2023-03-23T14:04:57;6.55;;;2.35;;
29452;SDS011;16424;50.956;5.320;2023-03-23T14:07:52;8.05;;;2.45;;
29452;SDS011;16424;50.956;5.320;2023-03-23T14:10:21;6.90;;;2.63;;
29452;SDS011;16424;50.956;5.320;2023-03-23T14:12:48;7.35;;;3.10;;
29452;SDS011;16424;50.956;5.320;2023-03-23T14:15:17;8.18;;;2.38;;
29452;SDS011;16424;50.956;5.320;2023-03-23T14:17:43;7.22;;;2.53;;
29452;SDS011;16424;50.956;5.320;2023-03-23T14:20:19;8.02;;;2.80;;
29452;SDS011;16424;50.956;5.320;2023-03-23T14:22:57;10.25;;;2.70;;
29452;SDS011;16424;50.956;5.320;2023-03-23T14:25:26;8.60;;;3.45;;
29452;SDS011;16424;50.956;5.320;2023-03-23T14:27:54;7.45;;;2.83;;
29452;SDS011;16424;50.956;5.320;2023-03-23T14:30:21;6.35;;;2.50;;
29452;SDS011;16424;50.956;5.320;2023-03-23T14:32:50;13.73;;;2.72;;
29452;SDS011;16424;50.956;5.320;2023-03-23T14:37:49;5.28;;;2.03;;
29452;SDS011;16424;50.956;5.320;2023-03-23T14:40:15;7.82;;;2.15;;
29452;SDS011;16424;50.956;5.320;2023-03-23T14:42:43;8.90;;;2.75;;
29452;SDS011;16424;50.956;5.320;2023-03-23T14:45:13;7.35;;;2.03;;
29452;SDS011;16424;50.956;5.320;2023-03-23T14:47:49;9.10;;;2.50;;
29452;SDS011;16424;50.956;5.320;2023-03-23T14:50:22;6.68;;;2.03;;
29452;SDS011;16424;50.956;5.320;2023-03-23T14:52:56;7.80;;;2.13;;
29452;SDS011;16424;50.956;5.320;2023-03-23T14:55:41;10.60;;;1.90;;
29452;SDS011;16424;50.956;5.320;2023-03-23T14:58:09;6.82;;;2.28;;
29452;SDS011;16424;50.956;5.320;2023-03-23T15:00:41;9.40;;;2.33;;
29452;SDS011;16424;50.956;5.320;2023-03-23T15:03:12;6.72;;;2.33;;
29452;SDS011;16424;50.956;5.320;2023-03-23T15:05:43;4.82;;;1.90;;
29452;SDS011;16424;50.956;5.320;2023-03-23T15:08:20;9.05;;;1.88;;
29452;SDS011;16424;50.956;5.320;2023-03-23T15:11:22;7.53;;;2.42;;
29452;SDS011;16424;50.956;5.320;2023-03-23T15:13:50;7.18;;;2.22;;
29452;SDS011;16424;50.956;5.320;2023-03-23T15:16:32;7.90;;;2.50;;
29452;SDS011;16424;50.956;5.320;2023-03-23T15:21:27;7.97;;;2.65;;
29452;SDS011;16424;50.956;5.320;2023-03-23T15:24:00;5.45;;;2.17;;
29452;SDS011;16424;50.956;5.320;2023-03-23T15:26:34;8.77;;;2.20;;
29452;SDS011;16424;50.956;5.320;2023-03-23T15:31:33;10.38;;;3.10;;
29452;SDS011;16424;50.956;5.320;2023-03-23T15:34:04;7.40;;;2.35;;
29452;SDS011;16424;50.956;5.320;2023-03-23T15:36:33;6.90;;;1.90;;
29452;SDS011;16424;50.956;5.320;2023-03-23T15:39:00;5.82;;;2.22;;
29452;SDS011;16424;50.956;5.320;2023-03-23T15:41:28;10.15;;;2.33;;
29452;SDS011;16424;50.956;5.320;2023-03-23T15:43:58;6.68;;;2.10;;
29452;SDS011;16424;50.956;5.320;2023-03-23T15:46:34;7.68;;;1.92;;
29452;SDS011;16424;50.956;5.320;2023-03-23T15:51:26;12.70;;;2.70;;
29452;SDS011;16424;50.956;5.320;2023-03-23T15:53:54;5.47;;;1.90;;
29452;SDS011;16424;50.956;5.320;2023-03-23T15:56:21;7.68;;;1.90;;
29452;SDS011;16424;50.956;5.320;2023-03-23T15:58:48;6.55;;;2.15;;
29452;SDS011;16424;50.956;5.320;2023-03-23T16:01:15;8.93;;;2.33;;
29452;SDS011;16424;50.956;5.320;2023-03-23T16:03:53;8.88;;;2.10;;
29452;SDS011;16424;50.956;5.320;2023-03-23T16:06:22;8.57;;;2.22;;
29452;SDS011;16424;50.956;5.320;2023-03-23T16:08:49;13.73;;;2.30;;
29452;SDS011;16424;50.956;5.320;2023-03-23T16:11:16;12.93;;;2.67;;
29452;SDS011;16424;50.956;5.320;2023-03-23T16:13:43;6.88;;;1.98;;
29452;SDS011;16424;50.956;5.320;2023-03-23T16:16:13;8.02;;;2.10;;
29452;SDS011;16424;50.956;5.320;2023-03-23T16:18:41;7.93;;;2.13;;
29452;SDS011;16424;50.956;5.320;2023-03-23T16:21:07;8.68;;;2.45;;
29452;SDS011;16424;50.956;5.320;2023-03-23T16:23:33;11.50;;;2.58;;
29452;SDS011;16424;50.956;5.320;2023-03-23T16:25:59;9.13;;;2.17;;
29452;SDS011;16424;50.956;5.320;2023-03-23T16:28:25;7.45;;;2.22;;
29452;SDS011;16424;50.956;5.320;2023-03-23T16:30:50;6.93;;;1.90;;
29452;SDS011;16424;50.956;5.320;2023-03-23T16:33:16;7.20;;;2.67;;
29452;SDS011;16424;50.956;5.320;2023-03-23T16:35:42;10.45;;;2.47;;
29452;SDS011;16424;50.956;5.320;2023-03-23T16:38:12;5.15;;;2.10;;
29452;SDS011;16424;50.956;5.320;2023-03-23T16:40:40;5.20;;;2.00;;
29452;SDS011;16424;50.956;5.320;2023-03-23T16:43:07;4.00;;;1.83;;
29452;SDS011;16424;50.956;5.320;2023-03-23T16:45:33;10.85;;;2.63;;
29452;SDS011;16424;50.956;5.320;2023-03-23T16:47:59;7.38;;;2.05;;
29452;SDS011;16424;50.956;5.320;2023-03-23T16:50:26;8.93;;;2.97;;
29452;SDS011;16424;50.956;5.320;2023-03-23T16:52:54;11.85;;;2.60;;
29452;SDS011;16424;50.956;5.320;2023-03-23T16:55:20;6.32;;;2.72;;
29452;SDS011;16424;50.956;5.320;2023-03-23T16:57:46;6.57;;;2.17;;
29452;SDS011;16424;50.956;5.320;2023-03-23T17:00:13;9.45;;;2.67;;
29452;SDS011;16424;50.956;5.320;2023-03-23T17:02:43;9.38;;;2.35;;
29452;SDS011;16424;50.956;5.320;2023-03-23T17:05:10;7.47;;;1.85;;
29452;SDS011;16424;50.956;5.320;2023-03-23T17:07:40;11.43;;;2.17;;
29452;SDS011;16424;50.956;5.320;2023-03-23T17:10:07;10.60;;;2.33;;
29452;SDS011;16424;50.956;5.320;2023-03-23T17:12:34;7.28;;;1.88;;
29452;SDS011;16424;50.956;5.320;2023-03-23T17:15:00;9.10;;;3.00;;